Terminal Aerodrome Forecast
Issued by NWS Louisville, KY

Home | Current Version | Previous Version | Text Only | Print | Product List | Glossary On
Versions: 1 2 3 4 5 6 7 8 9 10 11 12 13 14 15 16
385
FTUS43 KLMK 201734
TAFLEX
TAF
KLEX 201734Z 2018/2118 22008KT P6SM BKN022
     FM202100 22007KT P6SM SCT025 BKN035
     FM210800 16005KT 5SM BR SCT015 BKN025
     FM211100 17005KT 4SM BR BKN015
     FM211600 18007KT P6SM SCT025 BKN100=

USA.gov is the U.S. government's official web portal to all federal, state and local government web resources and services.